createdAt,value
2023-02-11T00:01:38.126Z,102316.49
2023-02-11T00:04:07.070Z,102303.16
2023-02-11T00:06:36.903Z,102295.39
2023-02-11T00:09:06.253Z,102313.33
2023-02-11T00:11:37.120Z,102314.29
2023-02-11T00:14:08.368Z,102306.06
2023-02-11T00:16:38.013Z,102301.30
2023-02-11T00:19:10.519Z,102293.63
2023-02-11T00:21:41.099Z,102282.27
2023-02-11T00:24:09.522Z,102262.15
2023-02-11T00:26:37.986Z,102250.27
2023-02-11T00:29:06.544Z,102265.39
2023-02-11T00:31:35.238Z,102260.42
2023-02-11T00:34:03.805Z,102257.31
2023-02-11T00:36:32.418Z,102249.16
2023-02-11T00:39:00.959Z,102228.52
2023-02-11T00:41:30.215Z,102213.66
2023-02-11T00:44:01.771Z,102202.66
2023-02-11T00:46:30.385Z,102189.02
2023-02-11T00:48:58.720Z,102194.33
2023-02-11T00:51:28.724Z,102176.23
2023-02-11T00:53:57.944Z,102177.75
2023-02-11T00:56:26.614Z,102165.73
2023-02-11T00:58:54.941Z,102162.00
2023-02-11T01:01:23.536Z,102153.82
2023-02-11T01:03:52.009Z,102150.36
2023-02-11T01:06:20.651Z,102143.55
2023-02-11T01:08:49.206Z,102139.88
2023-02-11T01:11:20.979Z,102135.02
2023-02-11T01:13:50.477Z,102129.39
2023-02-11T01:16:20.371Z,102131.13
2023-02-11T01:18:48.932Z,102129.50
2023-02-11T01:21:19.386Z,102131.40
2023-02-11T01:23:48.036Z,102113.27
2023-02-11T01:26:16.488Z,102103.39
2023-02-11T01:28:45.150Z,102098.12
2023-02-11T01:31:14.314Z,102106.52
2023-02-11T01:33:42.660Z,102100.23
2023-02-11T01:36:11.462Z,102101.41
2023-02-11T01:38:41.283Z,102110.42
2023-02-11T01:41:12.998Z,102098.49
2023-02-11T01:43:47.387Z,102086.31
2023-02-11T01:46:36.004Z,102075.29
2023-02-11T01:49:10.068Z,102071.67
2023-02-11T01:51:51.358Z,102069.55
2023-02-11T01:54:45.330Z,102042.63
2023-02-11T01:57:25.398Z,102056.20
2023-02-11T01:59:59.638Z,102052.98
2023-02-11T02:03:10.121Z,102039.83
2023-02-11T02:05:51.990Z,102028.46
2023-02-11T02:08:52.723Z,102017.45
2023-02-11T02:11:21.402Z,102013.92
2023-02-11T02:13:49.712Z,102009.20
2023-02-11T02:16:21.225Z,101999.78
2023-02-11T02:19:20.099Z,101979.28
2023-02-11T02:22:17.762Z,102006.65
2023-02-11T02:24:58.970Z,102002.20
2023-02-11T02:27:27.427Z,101992.68
2023-02-11T02:30:04.642Z,101984.70
2023-02-11T02:32:45.093Z,101982.98
2023-02-11T02:35:39.588Z,101976.55
2023-02-11T02:38:22.601Z,101974.14
2023-02-11T02:40:57.112Z,101969.13
2023-02-11T02:43:27.432Z,101962.02
2023-02-11T02:46:09.110Z,101966.20
2023-02-11T02:48:37.387Z,101962.86
2023-02-11T02:51:18.008Z,101958.27
2023-02-11T02:54:03.331Z,101950.73
2023-02-11T02:56:56.723Z,101942.32
2023-02-11T02:59:40.145Z,101931.90
2023-02-11T03:02:19.050Z,101921.44
2023-02-11T03:04:56.922Z,101926.46
2023-02-11T03:07:32.106Z,101922.00
2023-02-11T03:10:08.228Z,101916.80
2023-02-11T03:12:38.799Z,101913.55
2023-02-11T03:15:08.722Z,101902.61
2023-02-11T03:17:41.377Z,101897.13
2023-02-11T03:20:13.455Z,101890.14
2023-02-11T03:22:49.030Z,101885.76
2023-02-11T03:25:17.606Z,101886.17
2023-02-11T03:28:26.450Z,101881.38
2023-02-11T03:31:13.179Z,101877.71
2023-02-11T03:34:08.794Z,101872.27
2023-02-11T03:36:47.326Z,101861.94
2023-02-11T03:39:21.528Z,101859.70
2023-02-11T03:41:51.729Z,101849.36
2023-02-11T03:44:21.616Z,101842.66
2023-02-11T03:46:54.187Z,101840.15
2023-02-11T03:49:28.176Z,101841.48
2023-02-11T03:51:58.478Z,101836.46
2023-02-11T03:54:31.243Z,101833.55
2023-02-11T03:57:01.519Z,101828.34
2023-02-11T03:59:30.030Z,101820.67
2023-02-11T04:01:59.682Z,101812.94
2023-02-11T04:04:27.975Z,101785.02
2023-02-11T04:06:57.768Z,101815.67
2023-02-11T04:09:26.020Z,101814.69
2023-02-11T04:11:55.253Z,101813.11
2023-02-11T04:14:23.341Z,101808.00
2023-02-11T04:16:51.786Z,101795.77
2023-02-11T04:19:19.936Z,101796.77
2023-02-11T04:21:55.322Z,101797.10
2023-02-11T04:24:25.023Z,101794.86
2023-02-11T04:26:53.678Z,101790.33
2023-02-11T04:29:21.949Z,101786.55
2023-02-11T04:31:50.800Z,101781.23
2023-02-11T04:34:19.036Z,101787.55
2023-02-11T04:36:47.517Z,101773.59
2023-02-11T04:39:15.678Z,101761.81
2023-02-11T04:41:44.189Z,101753.34
2023-02-11T04:44:12.523Z,101762.44
2023-02-11T04:46:41.069Z,101765.66
2023-02-11T04:49:14.104Z,101759.65
2023-02-11T04:51:43.310Z,101744.28
2023-02-11T04:54:12.361Z,101752.09
2023-02-11T04:56:40.637Z,101758.29
2023-02-11T04:59:08.952Z,101746.70
2023-02-11T05:01:37.405Z,101749.81
2023-02-11T05:04:05.913Z,101748.65
2023-02-11T05:06:34.327Z,101751.02
2023-02-11T05:09:02.461Z,101745.23
2023-02-11T05:11:30.856Z,101747.44
2023-02-11T05:13:59.633Z,101743.55
2023-02-11T05:16:28.474Z,101679.96
2023-02-11T05:18:56.776Z,101741.64
2023-02-11T05:21:25.696Z,101730.21
2023-02-11T05:23:53.886Z,101720.73
2023-02-11T05:26:22.070Z,101719.14
2023-02-11T05:28:50.451Z,101720.42
2023-02-11T05:31:19.071Z,101708.40
2023-02-11T05:33:47.354Z,101691.05
2023-02-11T05:36:16.929Z,101674.98
2023-02-11T05:38:45.120Z,101672.91
2023-02-11T05:41:13.768Z,101682.77
2023-02-11T05:43:42.009Z,101671.45
2023-02-11T05:46:10.397Z,101682.37
2023-02-11T05:48:38.677Z,101680.33
2023-02-11T05:51:07.297Z,101678.20
2023-02-11T05:53:36.525Z,101675.80
2023-02-11T05:56:05.053Z,101667.88
2023-02-11T05:58:33.473Z,101667.10
2023-02-11T06:01:04.086Z,101669.33
2023-02-11T06:03:33.602Z,101676.85
2023-02-11T06:06:03.091Z,101670.72
2023-02-11T06:08:31.416Z,101672.48
2023-02-11T06:11:00.327Z,101678.79
2023-02-11T06:13:28.711Z,101676.56
2023-02-11T06:16:01.551Z,101674.85
2023-02-11T06:18:30.071Z,101672.91
2023-02-11T06:20:58.479Z,101668.30
2023-02-11T06:23:29.910Z,101664.05
2023-02-11T06:26:03.324Z,101660.73
2023-02-11T06:28:32.097Z,101653.27
2023-02-11T06:31:06.783Z,101650.57
2023-02-11T06:33:35.877Z,101640.15
2023-02-11T06:36:05.588Z,101630.04
2023-02-11T06:38:33.734Z,101624.94
2023-02-11T06:41:02.425Z,101626.56
2023-02-11T06:43:30.802Z,101623.03
2023-02-11T06:46:00.120Z,101619.30
2023-02-11T06:48:28.583Z,101617.24
2023-02-11T06:50:56.939Z,101603.72
2023-02-11T06:53:25.425Z,101615.92
2023-02-11T06:55:53.598Z,101616.05
2023-02-11T06:58:21.944Z,101609.40
2023-02-11T07:00:50.083Z,101611.46
2023-02-11T07:03:19.642Z,101620.66
2023-02-11T07:05:49.694Z,101632.27
2023-02-11T07:08:18.526Z,101630.36
2023-02-11T07:10:46.904Z,101631.65
2023-02-11T07:13:15.370Z,101630.52
2023-02-11T07:15:43.653Z,101633.20
2023-02-11T07:18:14.606Z,101642.83
2023-02-11T07:20:43.126Z,101640.09
2023-02-11T07:23:11.758Z,101628.81
2023-02-11T07:25:40.161Z,101618.49
2023-02-11T07:28:08.471Z,101622.84
2023-02-11T07:30:36.603Z,101615.52
2023-02-11T07:33:05.017Z,101624.54
2023-02-11T07:35:33.422Z,101607.40
2023-02-11T07:38:01.745Z,101618.04
2023-02-11T07:40:31.742Z,101616.38
2023-02-11T07:43:01.361Z,101611.31
2023-02-11T07:45:40.168Z,101599.27
2023-02-11T07:48:10.157Z,101583.00
2023-02-11T07:50:38.520Z,101586.95
2023-02-11T07:53:06.916Z,101586.59
2023-02-11T07:55:35.212Z,101579.16
2023-02-11T07:58:03.668Z,101582.19
2023-02-11T08:00:32.022Z,101560.19
2023-02-11T08:03:00.422Z,101564.88
2023-02-11T08:05:28.710Z,101568.08
2023-02-11T08:07:56.920Z,101577.34
2023-02-11T08:10:25.286Z,101573.02
2023-02-11T08:12:55.308Z,101562.95
2023-02-11T08:15:23.579Z,101562.39
2023-02-11T08:17:51.941Z,101559.30
2023-02-11T08:20:20.425Z,101535.31
2023-02-11T08:22:48.766Z,101563.87
2023-02-11T08:25:17.112Z,101552.43
2023-02-11T08:27:45.459Z,101545.56
2023-02-11T08:30:15.210Z,101534.31
2023-02-11T08:32:43.450Z,101528.60
2023-02-11T08:35:12.678Z,101526.95
2023-02-11T08:37:40.967Z,101523.11
2023-02-11T08:40:09.643Z,101521.81
2023-02-11T08:42:38.129Z,101493.05
2023-02-11T08:45:07.042Z,101508.15
2023-02-11T08:47:35.498Z,101526.58
2023-02-11T08:50:04.779Z,101523.96
2023-02-11T08:52:33.186Z,101498.55
2023-02-11T08:55:01.434Z,101475.98
2023-02-11T08:57:29.901Z,101471.98
2023-02-11T08:59:58.628Z,101475.15
2023-02-11T09:02:27.106Z,101475.29
2023-02-11T09:04:55.398Z,101469.73
2023-02-11T09:07:23.665Z,101467.65
2023-02-11T09:09:51.987Z,101469.90
2023-02-11T09:12:20.297Z,101456.98
2023-02-11T09:14:49.091Z,101449.19
2023-02-11T09:17:17.832Z,101486.08
2023-02-11T09:19:46.112Z,101488.42
2023-02-11T09:22:14.393Z,101492.69
2023-02-11T09:24:42.831Z,101492.48
2023-02-11T09:27:11.172Z,101484.09
2023-02-11T09:29:39.521Z,101492.23
2023-02-11T09:32:09.832Z,101477.38
2023-02-11T09:34:38.340Z,101481.38
2023-02-11T09:37:06.632Z,101481.33
2023-02-11T09:39:34.993Z,101486.23
2023-02-11T09:42:41.706Z,101474.66
2023-02-11T09:45:20.057Z,101439.52
2023-02-11T09:47:53.009Z,101475.01
2023-02-11T09:50:30.190Z,101460.66
2023-02-11T09:53:06.956Z,101474.34
2023-02-11T09:55:40.048Z,101478.20
2023-02-11T09:58:18.618Z,101476.33
2023-02-11T10:01:14.306Z,101462.02
2023-02-11T10:03:45.469Z,101459.81
2023-02-11T10:06:35.752Z,101456.91
2023-02-11T10:09:07.003Z,101457.96
2023-02-11T10:11:59.828Z,101454.42
2023-02-11T10:14:57.292Z,101459.66
2023-02-11T10:17:47.172Z,101454.47
2023-02-11T10:20:39.004Z,101454.46
2023-02-11T10:23:16.932Z,101454.17
2023-02-11T10:25:49.685Z,101456.16
2023-02-11T10:28:20.462Z,101449.45
2023-02-11T10:31:08.640Z,101439.22
2023-02-11T10:33:39.877Z,101438.95
2023-02-11T10:36:13.556Z,101448.77
2023-02-11T10:38:42.900Z,101454.54
2023-02-11T10:41:20.789Z,101451.51
2023-02-11T10:43:49.909Z,101438.48
2023-02-11T10:46:24.458Z,101463.17
2023-02-11T10:48:54.375Z,101463.66
2023-02-11T10:51:25.551Z,101468.05
2023-02-11T10:54:13.896Z,101466.47
2023-02-11T10:56:50.566Z,101447.28
2023-02-11T10:59:29.681Z,101465.94
2023-02-11T11:02:01.492Z,101454.05
2023-02-11T11:04:30.063Z,101467.98
2023-02-11T11:07:18.903Z,101466.35
2023-02-11T11:09:55.209Z,101450.86
2023-02-11T11:12:49.926Z,101469.73
2023-02-11T11:15:27.447Z,101471.84
2023-02-11T11:18:22.448Z,101469.86
2023-02-11T11:20:59.817Z,101470.83
2023-02-11T11:23:30.795Z,101479.45
2023-02-11T11:26:09.680Z,101479.02
2023-02-11T11:28:49.951Z,101485.09
2023-02-11T11:31:24.257Z,101478.11
2023-02-11T11:33:56.206Z,101484.65
2023-02-11T11:36:34.384Z,101491.63
2023-02-11T11:39:25.363Z,101489.16
2023-02-11T11:42:08.350Z,101496.50
2023-02-11T11:44:40.011Z,101496.99
2023-02-11T11:47:12.230Z,101496.13
2023-02-11T11:50:06.806Z,101484.28
2023-02-11T11:53:04.676Z,101498.25
2023-02-11T11:55:44.438Z,101481.63
2023-02-11T11:58:18.899Z,101499.14
2023-02-11T12:00:54.254Z,101504.58
2023-02-11T12:03:47.497Z,101502.91
2023-02-11T12:06:31.219Z,101481.71
2023-02-11T12:09:13.691Z,101497.02
2023-02-11T12:12:21.132Z,101505.02
2023-02-11T12:15:07.920Z,101510.47
2023-02-11T12:18:06.942Z,101520.77
2023-02-11T12:20:47.375Z,101519.70
2023-02-11T12:23:46.656Z,101518.95
2023-02-11T12:26:24.523Z,101509.10
2023-02-11T12:29:14.926Z,101526.36
2023-02-11T12:31:50.899Z,101526.69
2023-02-11T12:34:30.381Z,101527.06
2023-02-11T12:37:08.013Z,101528.42
2023-02-11T12:40:16.288Z,101535.91
2023-02-11T12:43:18.825Z,101533.83
2023-02-11T12:45:52.706Z,101543.98
2023-02-11T12:48:45.620Z,101530.58
2023-02-11T12:51:29.142Z,101547.11
2023-02-11T12:54:18.605Z,101538.38
2023-02-11T12:57:14.841Z,101554.56
2023-02-11T13:00:04.979Z,101562.89
2023-02-11T13:03:21.291Z,101557.56
2023-02-11T13:05:51.335Z,101568.14
2023-02-11T13:08:22.738Z,101572.52
2023-02-11T13:10:55.599Z,101574.54
2023-02-11T13:13:34.266Z,101577.30
2023-02-11T13:16:13.046Z,101583.17
2023-02-11T13:18:41.683Z,101585.29
2023-02-11T13:21:15.744Z,101590.10
2023-02-11T13:23:58.910Z,101589.91
2023-02-11T13:26:33.781Z,101595.33
2023-02-11T13:29:26.769Z,101600.12
2023-02-11T13:31:57.510Z,101602.67
2023-02-11T13:34:52.145Z,101603.45
2023-02-11T13:37:38.210Z,101605.98
2023-02-11T13:40:24.579Z,101612.54
2023-02-11T13:43:07.343Z,101617.89
2023-02-11T13:45:48.961Z,101622.13
2023-02-11T13:48:27.329Z,101626.05
2023-02-11T13:51:07.844Z,101631.50
2023-02-11T13:53:47.525Z,101635.34
2023-02-11T13:56:34.355Z,101635.17
2023-02-11T13:59:06.183Z,101635.86
2023-02-11T14:02:07.962Z,101641.71
2023-02-11T14:04:54.908Z,101641.41
2023-02-11T14:07:50.959Z,101639.87
2023-02-11T14:10:43.690Z,101648.21
2023-02-11T14:13:26.837Z,101652.77
2023-02-11T14:16:31.597Z,101661.55
2023-02-11T14:19:06.456Z,101670.75
2023-02-11T14:21:38.456Z,101679.27
2023-02-11T14:24:07.207Z,101689.33
2023-02-11T14:26:50.398Z,101698.40
2023-02-11T14:29:31.738Z,101707.21
2023-02-11T14:32:09.417Z,101716.14
2023-02-11T14:35:01.483Z,101726.18
2023-02-11T14:37:51.790Z,101727.37
2023-02-11T14:40:31.773Z,101736.58
2023-02-11T14:43:29.687Z,101745.00
2023-02-11T14:46:01.599Z,101754.83
2023-02-11T14:48:36.294Z,101765.91
2023-02-11T14:51:11.367Z,101774.98
2023-02-11T14:53:44.441Z,101786.08
2023-02-11T14:56:27.351Z,101793.98
2023-02-11T14:58:55.732Z,101798.67
2023-02-11T15:01:34.134Z,101800.97
2023-02-11T15:04:05.484Z,101815.81
2023-02-11T15:06:38.350Z,101816.30
2023-02-11T15:09:16.879Z,101822.23
2023-02-11T15:11:48.322Z,101822.75
2023-02-11T15:14:24.061Z,101828.58
2023-02-11T15:16:54.911Z,101846.49
2023-02-11T15:19:34.486Z,101859.47
2023-02-11T15:22:13.972Z,101860.62
2023-02-11T15:24:42.088Z,101862.62
2023-02-11T15:27:14.692Z,101872.00
2023-02-11T15:29:49.590Z,101879.42
2023-02-11T15:32:17.775Z,101871.83
2023-02-11T15:34:47.029Z,101891.23
2023-02-11T15:37:32.560Z,101901.14
2023-02-11T15:40:12.293Z,101909.31
2023-02-11T15:42:52.610Z,101918.55
2023-02-11T15:45:28.851Z,101922.64
2023-02-11T15:48:02.840Z,101926.42
2023-02-11T15:50:33.641Z,101932.89
2023-02-11T15:53:12.278Z,101932.41
2023-02-11T15:55:41.712Z,101943.66
2023-02-11T15:58:10.875Z,101948.30
2023-02-11T16:00:48.118Z,101947.43
2023-02-11T16:03:29.000Z,101953.89
2023-02-11T16:05:57.334Z,101970.47
2023-02-11T16:08:29.967Z,101980.63
2023-02-11T16:11:08.900Z,101989.95
2023-02-11T16:13:47.609Z,102003.55
2023-02-11T16:16:21.964Z,102015.10
2023-02-11T16:19:06.184Z,102023.66
2023-02-11T16:21:45.396Z,102034.88
2023-02-11T16:24:22.493Z,102038.29
2023-02-11T16:26:53.973Z,102048.61
2023-02-11T16:29:29.532Z,102048.67
2023-02-11T16:32:30.984Z,102061.40
2023-02-11T16:35:01.676Z,102077.05
2023-02-11T16:37:31.845Z,102087.14
2023-02-11T16:40:00.531Z,102094.75
2023-02-11T16:42:29.032Z,102094.09
2023-02-11T16:44:58.304Z,102100.11
2023-02-11T16:47:28.557Z,102094.34
2023-02-11T16:49:59.116Z,102112.71
2023-02-11T16:52:31.971Z,102121.25
2023-02-11T16:55:00.462Z,102134.57
2023-02-11T16:57:30.538Z,102147.20
2023-02-11T17:00:00.169Z,102155.27
2023-02-11T17:02:33.231Z,102158.20
2023-02-11T17:05:04.760Z,102166.94
2023-02-11T17:07:33.755Z,102173.77
2023-02-11T17:10:02.288Z,102168.30
2023-02-11T17:12:30.445Z,102191.50
2023-02-11T17:14:58.748Z,102200.88
2023-02-11T17:17:26.959Z,102212.73
2023-02-11T17:19:55.077Z,102220.06
2023-02-11T17:22:24.225Z,102230.77
2023-02-11T17:24:56.117Z,102231.36
2023-02-11T17:27:24.374Z,102255.44
2023-02-11T17:29:52.545Z,102262.20
2023-02-11T17:32:20.688Z,102264.45
2023-02-11T17:34:48.890Z,102263.84
2023-02-11T17:37:17.122Z,102289.98
2023-02-11T17:39:45.314Z,102296.15
2023-02-11T17:42:14.909Z,102299.73
2023-02-11T17:44:44.435Z,102313.89
2023-02-11T17:47:14.827Z,102320.67
2023-02-11T17:49:43.806Z,102307.03
2023-02-11T17:52:12.194Z,102320.94
2023-02-11T17:54:40.567Z,102296.83
2023-02-11T17:57:08.863Z,102300.79
2023-02-11T17:59:39.086Z,102336.91
2023-02-11T18:02:13.934Z,102338.10
2023-02-11T18:04:42.295Z,102345.05
2023-02-11T18:07:10.689Z,102351.64
2023-02-11T18:09:40.380Z,102356.08
2023-02-11T18:12:09.236Z,102352.75
2023-02-11T18:14:41.552Z,102368.73
2023-02-11T18:17:09.845Z,102372.61
2023-02-11T18:19:38.346Z,102358.21
2023-02-11T18:22:06.784Z,102379.61
2023-02-11T18:24:35.061Z,102380.98
2023-02-11T18:27:03.773Z,102367.94
2023-02-11T18:29:32.176Z,102393.76
2023-02-11T18:32:00.516Z,102395.77
2023-02-11T18:34:29.435Z,102398.05
2023-02-11T18:36:57.714Z,102407.81
2023-02-11T18:39:26.625Z,102415.09
2023-02-11T18:41:57.044Z,102422.94
2023-02-11T18:44:26.818Z,102435.34
2023-02-11T18:46:55.244Z,102446.90
2023-02-11T18:49:23.604Z,102452.48
2023-02-11T18:51:52.022Z,102457.15
2023-02-11T18:54:20.394Z,102459.83
2023-02-11T18:56:49.314Z,102467.59
2023-02-11T18:59:17.802Z,102478.75
2023-02-11T19:01:47.155Z,102484.64
2023-02-11T19:04:20.125Z,102488.71
2023-02-11T19:06:49.936Z,102488.48
2023-02-11T19:09:20.126Z,102495.10
2023-02-11T19:11:54.530Z,102498.40
2023-02-11T19:14:27.477Z,102504.14
2023-02-11T19:16:58.588Z,102511.84
2023-02-11T19:19:29.268Z,102521.20
2023-02-11T19:21:59.503Z,102530.89
2023-02-11T19:24:29.049Z,102535.61
2023-02-11T19:27:00.667Z,102539.54
2023-02-11T19:29:29.938Z,102545.36
2023-02-11T19:31:58.264Z,102550.34
2023-02-11T19:34:26.665Z,102556.02
2023-02-11T19:36:55.242Z,102563.02
2023-02-11T19:39:24.839Z,102567.55
2023-02-11T19:41:53.670Z,102573.51
2023-02-11T19:44:22.110Z,102582.42
2023-02-11T19:46:52.961Z,102582.40
2023-02-11T19:49:26.559Z,102598.56
2023-02-11T19:51:58.351Z,102599.73
2023-02-11T19:54:29.513Z,102607.37
2023-02-11T19:56:58.877Z,102611.79
2023-02-11T19:59:27.198Z,102617.80
2023-02-11T20:01:55.831Z,102629.30
2023-02-11T20:04:25.448Z,102637.33
2023-02-11T20:06:53.833Z,102638.65
2023-02-11T20:09:22.910Z,102639.10
2023-02-11T20:11:51.193Z,102640.05
2023-02-11T20:14:19.807Z,102640.55
2023-02-11T20:16:50.014Z,102650.79
2023-02-11T20:19:21.722Z,102651.95
2023-02-11T20:21:53.783Z,102660.47
2023-02-11T20:24:24.704Z,102666.97
2023-02-11T20:26:55.874Z,102677.85
2023-02-11T20:29:25.081Z,102680.66
2023-02-11T20:31:54.855Z,102671.69
2023-02-11T20:34:25.767Z,102694.02
2023-02-11T20:36:56.603Z,102656.89
2023-02-11T20:39:27.017Z,102705.26
2023-02-11T20:41:56.623Z,102701.25
2023-02-11T20:44:25.226Z,102706.52
2023-02-11T20:46:55.443Z,102656.39
2023-02-11T20:49:27.036Z,102732.02
2023-02-11T20:51:57.005Z,102734.45
2023-02-11T20:54:28.777Z,102735.60
2023-02-11T20:56:58.422Z,102743.98
2023-02-11T20:59:27.159Z,102739.02
2023-02-11T21:01:56.940Z,102734.48
2023-02-11T21:04:28.365Z,102758.83
2023-02-11T21:07:00.527Z,102767.63
2023-02-11T21:09:31.344Z,102784.84
2023-02-11T21:12:00.284Z,102787.92
2023-02-11T21:14:29.714Z,102768.80
2023-02-11T21:16:58.325Z,102786.89
2023-02-11T21:19:26.914Z,102796.06
2023-02-11T21:21:57.468Z,102797.10
2023-02-11T21:24:25.901Z,102796.27
2023-02-11T21:26:54.922Z,102799.73
2023-02-11T21:29:23.308Z,102801.88
2023-02-11T21:31:51.767Z,102803.39
2023-02-11T21:34:20.965Z,102808.16
2023-02-11T21:36:51.344Z,102809.99
2023-02-11T21:39:20.509Z,102809.01
2023-02-11T21:41:48.978Z,102817.87
2023-02-11T21:44:17.685Z,102823.21
2023-02-11T21:46:46.091Z,102828.04
2023-02-11T21:49:14.465Z,102828.48
2023-02-11T21:51:42.893Z,102829.39
2023-02-11T21:54:12.085Z,102836.56
2023-02-11T21:56:40.820Z,102846.14
2023-02-11T21:59:14.125Z,102852.39
2023-02-11T22:01:42.476Z,102849.21
2023-02-11T22:04:10.819Z,102841.93
2023-02-11T22:06:39.608Z,102833.07
2023-02-11T22:09:11.254Z,102860.72
2023-02-11T22:11:39.633Z,102858.19
2023-02-11T22:14:08.099Z,102869.91
2023-02-11T22:16:36.522Z,102867.29
2023-02-11T22:19:08.146Z,102893.55
2023-02-11T22:21:36.906Z,102879.63
2023-02-11T22:24:05.622Z,102902.11
2023-02-11T22:26:34.000Z,102904.63
2023-02-11T22:29:02.373Z,102909.95
2023-02-11T22:31:51.203Z,102915.66
2023-02-11T22:34:20.175Z,102923.86
2023-02-11T22:36:49.011Z,102904.04
2023-02-11T22:39:17.997Z,102928.40
2023-02-11T22:41:49.698Z,102932.99
2023-02-11T22:44:18.066Z,102938.56
2023-02-11T22:46:46.374Z,102938.68
2023-02-11T22:49:16.062Z,102941.69
2023-02-11T22:51:45.094Z,102934.02
2023-02-11T22:54:15.919Z,102936.52
2023-02-11T22:56:45.029Z,102939.77
2023-02-11T22:59:15.543Z,102931.86
2023-02-11T23:01:45.140Z,102929.66
2023-02-11T23:04:17.193Z,102933.54
2023-02-11T23:06:47.743Z,102940.53
2023-02-11T23:09:16.708Z,102938.70
2023-02-11T23:11:45.055Z,102944.39
2023-02-11T23:14:13.663Z,102935.39
2023-02-11T23:16:42.613Z,102947.05
2023-02-11T23:19:14.043Z,102952.52
2023-02-11T23:21:42.765Z,102947.00
2023-02-11T23:24:14.545Z,102952.94
2023-02-11T23:26:44.191Z,102965.48
2023-02-11T23:29:13.554Z,102966.94
2023-02-11T23:31:46.378Z,102970.48
2023-02-11T23:34:24.079Z,102977.48
2023-02-11T23:36:53.257Z,102978.84
2023-02-11T23:39:21.639Z,102968.57
2023-02-11T23:41:52.275Z,102985.29
2023-02-11T23:44:21.641Z,102998.68
2023-02-11T23:46:49.811Z,103002.86
2023-02-11T23:49:18.000Z,103006.38
2023-02-11T23:51:46.476Z,103010.27
2023-02-11T23:54:15.147Z,103015.25
2023-02-11T23:56:43.601Z,103025.17
2023-02-11T23:59:12.318Z,103032.32
